sensor_id;sensor_type;location;lat;lon;timestamp;P1;durP1;ratioP1;P2;durP2;ratioP2
62457;SDS011;48509;52.122;5.250;2023-02-04T00:01:37;37.31;;;6.6;;
62457;SDS011;48509;52.122;5.250;2023-02-04T00:04:50;37.21;;;6.9;;
62457;SDS011;48509;52.122;5.250;2023-02-04T00:06:26;29.8;;;5.9;;
62457;SDS011;48509;52.122;5.250;2023-02-04T00:08:03;32.71;;;6.6;;
62457;SDS011;48509;52.122;5.250;2023-02-04T00:09:39;37.9;;;7.1;;
62457;SDS011;48509;52.122;5.250;2023-02-04T00:12:52;30.3;;;6.3;;
62457;SDS011;48509;52.122;5.250;2023-02-04T00:14:28;33.8;;;5.9;;
62457;SDS011;48509;52.122;5.250;2023-02-04T00:16:04;37.9;;;6.8;;
62457;SDS011;48509;52.122;5.250;2023-02-04T00:19:17;31.1;;;6.8;;
62457;SDS011;48509;52.122;5.250;2023-02-04T00:20:54;41.2;;;7.1;;
62457;SDS011;48509;52.122;5.250;2023-02-04T00:22:30;38.4;;;6.3;;
62457;SDS011;48509;52.122;5.250;2023-02-04T00:25:42;33.3;;;6.2;;
62457;SDS011;48509;52.122;5.250;2023-02-04T00:27:18;36.1;;;6.6;;
62457;SDS011;48509;52.122;5.250;2023-02-04T00:28:55;39.5;;;6.9;;
62457;SDS011;48509;52.122;5.250;2023-02-04T00:32:08;42.4;;;6.4;;
62457;SDS011;48509;52.122;5.250;2023-02-04T00:33:44;32.9;;;5.9;;
62457;SDS011;48509;52.122;5.250;2023-02-04T00:35:20;38.21;;;7.1;;
62457;SDS011;48509;52.122;5.250;2023-02-04T00:36:57;32.71;;;6.1;;
62457;SDS011;48509;52.122;5.250;2023-02-04T00:40:10;33.1;;;5.9;;
62457;SDS011;48509;52.122;5.250;2023-02-04T00:41:46;37.6;;;6.5;;
62457;SDS011;48509;52.122;5.250;2023-02-04T00:43:23;34.4;;;6.2;;
62457;SDS011;48509;52.122;5.250;2023-02-04T00:46:35;35.31;;;6.2;;
62457;SDS011;48509;52.122;5.250;2023-02-04T00:48:11;36.9;;;6.8;;
62457;SDS011;48509;52.122;5.250;2023-02-04T00:49:47;38.31;;;7.6;;
62457;SDS011;48509;52.122;5.250;2023-02-04T00:53:00;37.1;;;6.0;;
62457;SDS011;48509;52.122;5.250;2023-02-04T00:54:37;42.1;;;7.2;;
62457;SDS011;48509;52.122;5.250;2023-02-04T00:56:13;37.1;;;6.6;;
62457;SDS011;48509;52.122;5.250;2023-02-04T00:57:50;35.4;;;6.5;;
62457;SDS011;48509;52.122;5.250;2023-02-04T01:01:02;39.1;;;6.9;;
62457;SDS011;48509;52.122;5.250;2023-02-04T01:02:40;33.9;;;6.4;;
62457;SDS011;48509;52.122;5.250;2023-02-04T01:04:16;38.1;;;6.8;;
62457;SDS011;48509;52.122;5.250;2023-02-04T01:07:29;32.9;;;6.4;;
62457;SDS011;48509;52.122;5.250;2023-02-04T01:09:05;43.6;;;7.0;;
62457;SDS011;48509;52.122;5.250;2023-02-04T01:10:41;36.81;;;7.1;;
62457;SDS011;48509;52.122;5.250;2023-02-04T01:13:54;37.0;;;6.3;;
62457;SDS011;48509;52.122;5.250;2023-02-04T01:15:30;40.5;;;6.9;;
62457;SDS011;48509;52.122;5.250;2023-02-04T01:17:06;41.7;;;7.5;;
62457;SDS011;48509;52.122;5.250;2023-02-04T01:18:42;38.21;;;7.5;;
62457;SDS011;48509;52.122;5.250;2023-02-04T01:21:55;43.0;;;7.4;;
62457;SDS011;48509;52.122;5.250;2023-02-04T01:23:31;42.9;;;7.1;;
62457;SDS011;48509;52.122;5.250;2023-02-04T01:25:08;36.1;;;6.8;;
62457;SDS011;48509;52.122;5.250;2023-02-04T01:28:20;41.5;;;6.9;;
62457;SDS011;48509;52.122;5.250;2023-02-04T01:29:56;47.6;;;7.1;;
62457;SDS011;48509;52.122;5.250;2023-02-04T01:31:33;38.9;;;6.8;;
62457;SDS011;48509;52.122;5.250;2023-02-04T01:34:45;39.1;;;6.8;;
62457;SDS011;48509;52.122;5.250;2023-02-04T01:36:22;55.5;;;7.9;;
62457;SDS011;48509;52.122;5.250;2023-02-04T01:37:58;37.4;;;6.7;;
62457;SDS011;48509;52.122;5.250;2023-02-04T01:41:12;40.1;;;7.1;;
62457;SDS011;48509;52.122;5.250;2023-02-04T01:42:49;49.6;;;7.0;;
62457;SDS011;48509;52.122;5.250;2023-02-04T01:44:26;41.4;;;7.2;;
62457;SDS011;48509;52.122;5.250;2023-02-04T01:46:04;48.7;;;7.6;;
62457;SDS011;48509;52.122;5.250;2023-02-04T01:49:19;48.7;;;7.6;;
62457;SDS011;48509;52.122;5.250;2023-02-04T01:51:01;43.3;;;7.9;;
62457;SDS011;48509;52.122;5.250;2023-02-04T01:52:40;51.0;;;7.5;;
62457;SDS011;48509;52.122;5.250;2023-02-04T01:54:20;39.81;;;7.0;;
62457;SDS011;48509;52.122;5.250;2023-02-04T01:57:34;42.9;;;7.7;;
62457;SDS011;48509;52.122;5.250;2023-02-04T01:59:11;39.81;;;7.2;;
62457;SDS011;48509;52.122;5.250;2023-02-04T02:00:49;41.6;;;7.5;;
62457;SDS011;48509;52.122;5.250;2023-02-04T02:04:23;42.8;;;7.1;;
62457;SDS011;48509;52.122;5.250;2023-02-04T02:06:06;45.3;;;8.0;;
62457;SDS011;48509;52.122;5.250;2023-02-04T02:07:45;43.6;;;7.1;;
62457;SDS011;48509;52.122;5.250;2023-02-04T02:09:21;50.3;;;8.71;;
62457;SDS011;48509;52.122;5.250;2023-02-04T02:12:34;50.3;;;8.71;;
62457;SDS011;48509;52.122;5.250;2023-02-04T02:14:10;41.7;;;7.4;;
62457;SDS011;48509;52.122;5.250;2023-02-04T02:15:47;49.2;;;9.0;;
62457;SDS011;48509;52.122;5.250;2023-02-04T02:17:24;47.4;;;8.0;;
62457;SDS011;48509;52.122;5.250;2023-02-04T02:20:38;39.31;;;7.6;;
62457;SDS011;48509;52.122;5.250;2023-02-04T02:22:19;35.71;;;7.0;;
62457;SDS011;48509;52.122;5.250;2023-02-04T02:24:17;49.1;;;7.8;;
62457;SDS011;48509;52.122;5.250;2023-02-04T02:26:00;54.0;;;8.6;;
62457;SDS011;48509;52.122;5.250;2023-02-04T02:29:14;43.8;;;7.7;;
62457;SDS011;48509;52.122;5.250;2023-02-04T02:30:50;47.3;;;8.6;;
62457;SDS011;48509;52.122;5.250;2023-02-04T02:32:27;37.71;;;7.0;;
62457;SDS011;48509;52.122;5.250;2023-02-04T02:34:03;45.1;;;8.2;;
62457;SDS011;48509;52.122;5.250;2023-02-04T02:37:20;58.8;;;9.1;;
62457;SDS011;48509;52.122;5.250;2023-02-04T02:38:59;52.5;;;8.5;;
62457;SDS011;48509;52.122;5.250;2023-02-04T02:40:35;49.4;;;8.1;;
62457;SDS011;48509;52.122;5.250;2023-02-04T02:43:51;44.9;;;7.9;;
62457;SDS011;48509;52.122;5.250;2023-02-04T02:45:29;54.6;;;8.81;;
62457;SDS011;48509;52.122;5.250;2023-02-04T02:47:08;41.6;;;8.31;;
62457;SDS011;48509;52.122;5.250;2023-02-04T02:48:48;57.5;;;9.71;;
62457;SDS011;48509;52.122;5.250;2023-02-04T02:52:04;42.0;;;7.8;;
62457;SDS011;48509;52.122;5.250;2023-02-04T02:53:40;42.4;;;7.3;;
62457;SDS011;48509;52.122;5.250;2023-02-04T02:55:17;45.8;;;8.1;;
62457;SDS011;48509;52.122;5.250;2023-02-04T02:58:34;34.71;;;7.2;;
62457;SDS011;48509;52.122;5.250;2023-02-04T03:00:12;42.5;;;7.5;;
62457;SDS011;48509;52.122;5.250;2023-02-04T03:01:52;36.71;;;7.8;;
62457;SDS011;48509;52.122;5.250;2023-02-04T03:06:49;45.4;;;8.1;;
62457;SDS011;48509;52.122;5.250;2023-02-04T03:08:26;37.9;;;7.0;;
62457;SDS011;48509;52.122;5.250;2023-02-04T03:10:03;42.9;;;7.5;;
62457;SDS011;48509;52.122;5.250;2023-02-04T03:11:40;43.1;;;7.6;;
62457;SDS011;48509;52.122;5.250;2023-02-04T03:14:53;46.4;;;8.0;;
62457;SDS011;48509;52.122;5.250;2023-02-04T03:16:31;44.7;;;8.2;;
62457;SDS011;48509;52.122;5.250;2023-02-04T03:18:10;41.2;;;7.7;;
62457;SDS011;48509;52.122;5.250;2023-02-04T03:21:24;38.81;;;7.3;;
62457;SDS011;48509;52.122;5.250;2023-02-04T03:23:00;33.8;;;7.5;;
62457;SDS011;48509;52.122;5.250;2023-02-04T03:24:36;40.4;;;7.8;;
62457;SDS011;48509;52.122;5.250;2023-02-04T03:27:50;41.3;;;8.0;;
62457;SDS011;48509;52.122;5.250;2023-02-04T03:29:27;30.4;;;6.9;;
62457;SDS011;48509;52.122;5.250;2023-02-04T03:31:03;39.0;;;7.1;;
62457;SDS011;48509;52.122;5.250;2023-02-04T03:32:40;40.1;;;7.3;;
62457;SDS011;48509;52.122;5.250;2023-02-04T03:35:53;37.4;;;7.1;;
62457;SDS011;48509;52.122;5.250;2023-02-04T03:37:30;38.1;;;7.3;;
62457;SDS011;48509;52.122;5.250;2023-02-04T03:39:06;40.4;;;7.5;;
62457;SDS011;48509;52.122;5.250;2023-02-04T03:42:20;38.81;;;7.2;;
62457;SDS011;48509;52.122;5.250;2023-02-04T03:43:56;40.5;;;7.5;;
62457;SDS011;48509;52.122;5.250;2023-02-04T03:45:32;32.0;;;6.8;;
62457;SDS011;48509;52.122;5.250;2023-02-04T03:48:45;37.6;;;7.6;;
62457;SDS011;48509;52.122;5.250;2023-02-04T03:50:21;37.6;;;7.0;;
62457;SDS011;48509;52.122;5.250;2023-02-04T03:51:57;33.9;;;6.5;;
62457;SDS011;48509;52.122;5.250;2023-02-04T03:53:33;33.21;;;6.7;;
62457;SDS011;48509;52.122;5.250;2023-02-04T03:56:46;36.4;;;6.9;;
62457;SDS011;48509;52.122;5.250;2023-02-04T03:58:22;28.3;;;6.2;;
62457;SDS011;48509;52.122;5.250;2023-02-04T03:59:58;31.9;;;6.6;;
62457;SDS011;48509;52.122;5.250;2023-02-04T04:03:10;36.0;;;6.7;;
62457;SDS011;48509;52.122;5.250;2023-02-04T04:04:46;35.4;;;6.6;;
62457;SDS011;48509;52.122;5.250;2023-02-04T04:06:23;39.31;;;7.1;;
62457;SDS011;48509;52.122;5.250;2023-02-04T04:09:36;33.9;;;6.5;;
62457;SDS011;48509;52.122;5.250;2023-02-04T04:11:12;38.71;;;6.5;;
62457;SDS011;48509;52.122;5.250;2023-02-04T04:12:49;34.31;;;6.6;;
62457;SDS011;48509;52.122;5.250;2023-02-04T04:14:25;34.81;;;6.4;;
62457;SDS011;48509;52.122;5.250;2023-02-04T04:17:39;29.8;;;5.9;;
62457;SDS011;48509;52.122;5.250;2023-02-04T04:19:15;39.71;;;6.9;;
62457;SDS011;48509;52.122;5.250;2023-02-04T04:20:51;33.8;;;6.2;;
62457;SDS011;48509;52.122;5.250;2023-02-04T04:24:04;49.1;;;7.5;;
62457;SDS011;48509;52.122;5.250;2023-02-04T04:25:41;46.0;;;7.0;;
62457;SDS011;48509;52.122;5.250;2023-02-04T04:27:17;29.8;;;6.1;;
62457;SDS011;48509;52.122;5.250;2023-02-04T04:30:29;41.8;;;7.1;;
62457;SDS011;48509;52.122;5.250;2023-02-04T04:32:05;36.21;;;7.0;;
62457;SDS011;48509;52.122;5.250;2023-02-04T04:33:42;33.6;;;6.8;;
62457;SDS011;48509;52.122;5.250;2023-02-04T04:36:54;60.1;;;8.6;;
62457;SDS011;48509;52.122;5.250;2023-02-04T04:38:30;32.0;;;6.4;;
62457;SDS011;48509;52.122;5.250;2023-02-04T04:40:07;35.6;;;6.9;;
62457;SDS011;48509;52.122;5.250;2023-02-04T04:41:47;34.9;;;6.6;;
62457;SDS011;48509;52.122;5.250;2023-02-04T04:44:59;50.3;;;7.9;;
62457;SDS011;48509;52.122;5.250;2023-02-04T04:46:35;38.21;;;7.1;;
62457;SDS011;48509;52.122;5.250;2023-02-04T04:48:11;52.5;;;7.7;;
62457;SDS011;48509;52.122;5.250;2023-02-04T04:51:23;31.2;;;6.1;;
62457;SDS011;48509;52.122;5.250;2023-02-04T04:53:00;30.3;;;6.8;;
62457;SDS011;48509;52.122;5.250;2023-02-04T04:54:36;45.3;;;7.6;;
62457;SDS011;48509;52.122;5.250;2023-02-04T04:57:48;41.1;;;6.7;;
62457;SDS011;48509;52.122;5.250;2023-02-04T04:59:24;44.9;;;7.8;;
62457;SDS011;48509;52.122;5.250;2023-02-04T05:01:00;52.8;;;8.31;;
62457;SDS011;48509;52.122;5.250;2023-02-04T05:02:36;35.21;;;6.4;;
62457;SDS011;48509;52.122;5.250;2023-02-04T05:05:49;32.21;;;6.0;;
62457;SDS011;48509;52.122;5.250;2023-02-04T05:07:25;28.0;;;5.9;;
62457;SDS011;48509;52.122;5.250;2023-02-04T05:09:02;33.6;;;6.3;;
62457;SDS011;48509;52.122;5.250;2023-02-04T05:12:16;33.8;;;6.4;;
62457;SDS011;48509;52.122;5.250;2023-02-04T05:13:53;38.21;;;7.3;;
62457;SDS011;48509;52.122;5.250;2023-02-04T05:15:29;33.0;;;6.9;;
62457;SDS011;48509;52.122;5.250;2023-02-04T05:18:42;46.8;;;7.6;;
62457;SDS011;48509;52.122;5.250;2023-02-04T05:20:19;31.4;;;6.0;;
62457;SDS011;48509;52.122;5.250;2023-02-04T05:21:56;40.4;;;6.7;;
62457;SDS011;48509;52.122;5.250;2023-02-04T05:23:32;35.0;;;7.1;;
62457;SDS011;48509;52.122;5.250;2023-02-04T05:26:46;42.2;;;8.2;;
62457;SDS011;48509;52.122;5.250;2023-02-04T05:28:22;36.1;;;7.3;;
62457;SDS011;48509;52.122;5.250;2023-02-04T05:29:58;38.4;;;7.0;;
62457;SDS011;48509;52.122;5.250;2023-02-04T05:33:11;35.31;;;7.3;;
62457;SDS011;48509;52.122;5.250;2023-02-04T05:34:47;30.2;;;6.4;;
62457;SDS011;48509;52.122;5.250;2023-02-04T05:36:23;27.4;;;6.0;;
62457;SDS011;48509;52.122;5.250;2023-02-04T05:39:35;42.4;;;7.6;;
62457;SDS011;48509;52.122;5.250;2023-02-04T05:41:12;37.4;;;7.2;;
62457;SDS011;48509;52.122;5.250;2023-02-04T05:42:48;30.2;;;6.5;;
62457;SDS011;48509;52.122;5.250;2023-02-04T05:44:24;39.9;;;7.3;;
62457;SDS011;48509;52.122;5.250;2023-02-04T05:47:37;26.7;;;5.7;;
62457;SDS011;48509;52.122;5.250;2023-02-04T05:49:13;29.7;;;5.8;;
62457;SDS011;48509;52.122;5.250;2023-02-04T05:50:51;21.8;;;5.3;;
62457;SDS011;48509;52.122;5.250;2023-02-04T05:54:03;39.5;;;7.0;;
62457;SDS011;48509;52.122;5.250;2023-02-04T05:55:39;27.7;;;6.4;;
62457;SDS011;48509;52.122;5.250;2023-02-04T05:57:15;30.4;;;6.5;;
62457;SDS011;48509;52.122;5.250;2023-02-04T06:00:27;25.3;;;6.3;;
62457;SDS011;48509;52.122;5.250;2023-02-04T06:02:04;38.5;;;7.7;;
62457;SDS011;48509;52.122;5.250;2023-02-04T06:03:40;39.31;;;7.5;;
62457;SDS011;48509;52.122;5.250;2023-02-04T06:05:17;39.5;;;8.2;;
62457;SDS011;48509;52.122;5.250;2023-02-04T06:08:30;44.7;;;8.6;;
62457;SDS011;48509;52.122;5.250;2023-02-04T06:10:07;43.6;;;8.81;;
62457;SDS011;48509;52.122;5.250;2023-02-04T06:11:45;31.0;;;7.4;;
62457;SDS011;48509;52.122;5.250;2023-02-04T06:14:57;44.8;;;8.81;;
62457;SDS011;48509;52.122;5.250;2023-02-04T06:16:33;50.1;;;9.0;;
62457;SDS011;48509;52.122;5.250;2023-02-04T06:18:10;54.9;;;10.3;;
62457;SDS011;48509;52.122;5.250;2023-02-04T06:21:22;26.8;;;6.6;;
62457;SDS011;48509;52.122;5.250;2023-02-04T06:22:58;38.9;;;8.2;;
62457;SDS011;48509;52.122;5.250;2023-02-04T06:24:35;40.9;;;7.9;;
62457;SDS011;48509;52.122;5.250;2023-02-04T06:27:48;36.81;;;8.1;;
62457;SDS011;48509;52.122;5.250;2023-02-04T06:29:25;41.5;;;8.5;;
62457;SDS011;48509;52.122;5.250;2023-02-04T06:31:02;38.0;;;8.4;;
62457;SDS011;48509;52.122;5.250;2023-02-04T06:32:39;45.4;;;8.5;;
62457;SDS011;48509;52.122;5.250;2023-02-04T06:35:52;36.4;;;7.9;;
62457;SDS011;48509;52.122;5.250;2023-02-04T06:37:29;30.1;;;7.1;;
62457;SDS011;48509;52.122;5.250;2023-02-04T06:39:05;31.0;;;7.1;;
62457;SDS011;48509;52.122;5.250;2023-02-04T06:42:17;43.5;;;7.9;;
62457;SDS011;48509;52.122;5.250;2023-02-04T06:43:54;40.1;;;7.8;;
62457;SDS011;48509;52.122;5.250;2023-02-04T06:45:30;28.0;;;6.8;;
62457;SDS011;48509;52.122;5.250;2023-02-04T06:48:42;29.0;;;6.6;;
62457;SDS011;48509;52.122;5.250;2023-02-04T06:50:18;39.0;;;7.3;;
62457;SDS011;48509;52.122;5.250;2023-02-04T06:51:54;34.9;;;7.8;;
62457;SDS011;48509;52.122;5.250;2023-02-04T06:53:30;39.21;;;8.5;;
62457;SDS011;48509;52.122;5.250;2023-02-04T06:56:42;37.4;;;8.0;;
62457;SDS011;48509;52.122;5.250;2023-02-04T06:58:18;37.21;;;7.6;;
62457;SDS011;48509;52.122;5.250;2023-02-04T06:59:54;38.31;;;7.9;;
62457;SDS011;48509;52.122;5.250;2023-02-04T07:03:06;42.1;;;8.9;;
62457;SDS011;48509;52.122;5.250;2023-02-04T07:04:42;53.0;;;9.9;;
62457;SDS011;48509;52.122;5.250;2023-02-04T07:06:18;51.6;;;9.81;;
62457;SDS011;48509;52.122;5.250;2023-02-04T07:09:30;48.2;;;9.5;;
62457;SDS011;48509;52.122;5.250;2023-02-04T07:11:06;42.4;;;9.5;;
62457;SDS011;48509;52.122;5.250;2023-02-04T07:12:42;47.5;;;9.71;;
62457;SDS011;48509;52.122;5.250;2023-02-04T07:15:54;43.5;;;9.31;;
62457;SDS011;48509;52.122;5.250;2023-02-04T07:17:31;38.21;;;8.81;;
62457;SDS011;48509;52.122;5.250;2023-02-04T07:19:07;34.9;;;8.1;;
62457;SDS011;48509;52.122;5.250;2023-02-04T07:20:43;38.4;;;8.6;;
62457;SDS011;48509;52.122;5.250;2023-02-04T07:23:55;38.6;;;8.71;;
62457;SDS011;48509;52.122;5.250;2023-02-04T07:25:31;39.4;;;8.81;;
62457;SDS011;48509;52.122;5.250;2023-02-04T07:27:07;34.5;;;7.6;;
62457;SDS011;48509;52.122;5.250;2023-02-04T07:30:20;47.5;;;8.81;;
62457;SDS011;48509;52.122;5.250;2023-02-04T07:31:55;33.3;;;8.4;;
62457;SDS011;48509;52.122;5.250;2023-02-04T07:33:31;30.8;;;7.9;;
62457;SDS011;48509;52.122;5.250;2023-02-04T07:36:46;32.3;;;7.4;;
62457;SDS011;48509;52.122;5.250;2023-02-04T07:38:22;38.6;;;8.31;;
62457;SDS011;48509;52.122;5.250;2023-02-04T07:39:58;32.9;;;8.0;;
62457;SDS011;48509;52.122;5.250;2023-02-04T07:41:34;26.4;;;7.4;;
62457;SDS011;48509;52.122;5.250;2023-02-04T07:44:46;33.9;;;8.0;;
62457;SDS011;48509;52.122;5.250;2023-02-04T07:46:22;36.9;;;8.2;;
62457;SDS011;48509;52.122;5.250;2023-02-04T07:47:57;29.7;;;7.5;;
62457;SDS011;48509;52.122;5.250;2023-02-04T07:51:09;39.71;;;8.6;;
62457;SDS011;48509;52.122;5.250;2023-02-04T07:52:45;37.6;;;8.81;;
62457;SDS011;48509;52.122;5.250;2023-02-04T07:54:20;40.81;;;9.4;;
62457;SDS011;48509;52.122;5.250;2023-02-04T07:57:33;33.6;;;8.4;;
62457;SDS011;48509;52.122;5.250;2023-02-04T07:59:09;30.0;;;7.9;;
62457;SDS011;48509;52.122;5.250;2023-02-04T08:00:45;37.0;;;8.1;;
62457;SDS011;48509;52.122;5.250;2023-02-04T08:03:57;44.0;;;9.9;;
62457;SDS011;48509;52.122;5.250;2023-02-04T08:05:34;45.0;;;10.5;;
62457;SDS011;48509;52.122;5.250;2023-02-04T08:07:10;33.8;;;8.6;;
62457;SDS011;48509;52.122;5.250;2023-02-04T08:08:46;35.0;;;8.9;;
62457;SDS011;48509;52.122;5.250;2023-02-04T08:11:59;37.31;;;9.0;;
62457;SDS011;48509;52.122;5.250;2023-02-04T08:13:35;37.4;;;9.21;;
62457;SDS011;48509;52.122;5.250;2023-02-04T08:15:11;37.4;;;9.21;;
62457;SDS011;48509;52.122;5.250;2023-02-04T08:18:24;25.2;;;6.8;;
62457;SDS011;48509;52.122;5.250;2023-02-04T08:20:00;31.2;;;8.2;;
62457;SDS011;48509;52.122;5.250;2023-02-04T08:21:36;31.6;;;8.1;;
62457;SDS011;48509;52.122;5.250;2023-02-04T08:24:48;29.3;;;8.1;;
62457;SDS011;48509;52.122;5.250;2023-02-04T08:26:24;28.1;;;7.7;;
62457;SDS011;48509;52.122;5.250;2023-02-04T08:28:00;21.0;;;6.7;;
62457;SDS011;48509;52.122;5.250;2023-02-04T08:29:38;35.9;;;8.0;;
62457;SDS011;48509;52.122;5.250;2023-02-04T08:32:50;35.5;;;8.2;;
62457;SDS011;48509;52.122;5.250;2023-02-04T08:34:26;32.1;;;9.21;;
62457;SDS011;48509;52.122;5.250;2023-02-04T08:36:02;35.71;;;9.4;;
62457;SDS011;48509;52.122;5.250;2023-02-04T08:39:15;37.31;;;9.1;;
62457;SDS011;48509;52.122;5.250;2023-02-04T08:40:52;38.71;;;9.31;;
62457;SDS011;48509;52.122;5.250;2023-02-04T08:42:28;42.8;;;11.3;;
62457;SDS011;48509;52.122;5.250;2023-02-04T08:45:41;43.1;;;10.4;;
62457;SDS011;48509;52.122;5.250;2023-02-04T08:47:17;37.71;;;8.9;;
62457;SDS011;48509;52.122;5.250;2023-02-04T08:48:53;37.0;;;9.21;;
62457;SDS011;48509;52.122;5.250;2023-02-04T08:52:07;39.71;;;9.9;;
62457;SDS011;48509;52.122;5.250;2023-02-04T08:53:44;27.2;;;8.2;;
62457;SDS011;48509;52.122;5.250;2023-02-04T08:55:20;33.9;;;9.31;;
62457;SDS011;48509;52.122;5.250;2023-02-04T08:56:56;31.6;;;9.0;;
62457;SDS011;48509;52.122;5.250;2023-02-04T09:00:09;51.0;;;13.4;;
62457;SDS011;48509;52.122;5.250;2023-02-04T09:01:48;44.2;;;12.8;;
62457;SDS011;48509;52.122;5.250;2023-02-04T09:03:25;48.6;;;12.8;;
62457;SDS011;48509;52.122;5.250;2023-02-04T09:06:37;47.4;;;13.8;;
62457;SDS011;48509;52.122;5.250;2023-02-04T09:08:14;52.4;;;13.7;;
62457;SDS011;48509;52.122;5.250;2023-02-04T09:09:50;49.4;;;12.6;;
62457;SDS011;48509;52.122;5.250;2023-02-04T09:13:02;52.9;;;14.8;;
62457;SDS011;48509;52.122;5.250;2023-02-04T09:14:39;53.0;;;14.1;;
62457;SDS011;48509;52.122;5.250;2023-02-04T09:16:16;45.7;;;11.6;;
62457;SDS011;48509;52.122;5.250;2023-02-04T09:21:12;34.5;;;10.4;;
62457;SDS011;48509;52.122;5.250;2023-02-04T09:22:49;41.4;;;11.2;;
62457;SDS011;48509;52.122;5.250;2023-02-04T09:24:25;46.4;;;10.9;;
62457;SDS011;48509;52.122;5.250;2023-02-04T09:27:40;36.5;;;10.6;;
62457;SDS011;48509;52.122;5.250;2023-02-04T09:29:16;42.6;;;11.3;;
62457;SDS011;48509;52.122;5.250;2023-02-04T09:30:53;38.0;;;9.81;;
62457;SDS011;48509;52.122;5.250;2023-02-04T09:32:28;39.0;;;10.21;;
62457;SDS011;48509;52.122;5.250;2023-02-04T09:35:41;50.1;;;11.5;;
62457;SDS011;48509;52.122;5.250;2023-02-04T09:37:17;39.81;;;9.71;;
62457;SDS011;48509;52.122;5.250;2023-02-04T09:38:53;39.81;;;9.71;;
62457;SDS011;48509;52.122;5.250;2023-02-04T09:42:11;45.3;;;10.1;;
62457;SDS011;48509;52.122;5.250;2023-02-04T09:43:49;42.3;;;9.4;;
62457;SDS011;48509;52.122;5.250;2023-02-04T09:45:27;41.4;;;9.71;;
62457;SDS011;48509;52.122;5.250;2023-02-04T09:47:08;35.31;;;9.21;;
62457;SDS011;48509;52.122;5.250;2023-02-04T09:50:26;56.7;;;12.5;;
62457;SDS011;48509;52.122;5.250;2023-02-04T09:52:03;44.1;;;9.21;;
62457;SDS011;48509;52.122;5.250;2023-02-04T09:57:10;56.6;;;11.3;;
62457;SDS011;48509;52.122;5.250;2023-02-04T09:58:51;48.7;;;8.6;;
62457;SDS011;48509;52.122;5.250;2023-02-04T10:00:28;46.2;;;8.81;;
62457;SDS011;48509;52.122;5.250;2023-02-04T10:02:09;44.7;;;8.4;;
62457;SDS011;48509;52.122;5.250;2023-02-04T10:03:59;38.4;;;7.9;;
62457;SDS011;48509;52.122;5.250;2023-02-04T10:07:13;48.0;;;8.6;;
62457;SDS011;48509;52.122;5.250;2023-02-04T10:08:53;46.3;;;8.9;;
62457;SDS011;48509;52.122;5.250;2023-02-04T10:10:32;46.7;;;9.21;;
62457;SDS011;48509;52.122;5.250;2023-02-04T10:12:08;44.9;;;8.71;;
62457;SDS011;48509;52.122;5.250;2023-02-04T10:15:23;42.3;;;8.71;;
62457;SDS011;48509;52.122;5.250;2023-02-04T10:17:00;41.1;;;7.9;;
62457;SDS011;48509;52.122;5.250;2023-02-04T10:18:37;48.9;;;8.6;;
62457;SDS011;48509;52.122;5.250;2023-02-04T10:21:54;43.5;;;7.6;;
62457;SDS011;48509;52.122;5.250;2023-02-04T10:23:31;42.4;;;8.1;;
62457;SDS011;48509;52.122;5.250;2023-02-04T10:25:10;42.3;;;7.9;;
62457;SDS011;48509;52.122;5.250;2023-02-04T10:26:48;49.9;;;8.71;;
62457;SDS011;48509;52.122;5.250;2023-02-04T10:30:14;44.4;;;8.6;;
62457;SDS011;48509;52.122;5.250;2023-02-04T10:31:54;47.8;;;8.6;;
62457;SDS011;48509;52.122;5.250;2023-02-04T10:33:32;42.4;;;8.6;;
62457;SDS011;48509;52.122;5.250;2023-02-04T10:35:12;41.3;;;7.7;;
62457;SDS011;48509;52.122;5.250;2023-02-04T10:38:29;48.9;;;8.81;;
62457;SDS011;48509;52.122;5.250;2023-02-04T10:40:21;59.1;;;8.5;;
62457;SDS011;48509;52.122;5.250;2023-02-04T10:42:01;41.1;;;7.7;;
62457;SDS011;48509;52.122;5.250;2023-02-04T10:43:38;47.4;;;8.2;;
62457;SDS011;48509;52.122;5.250;2023-02-04T10:46:59;43.1;;;8.0;;
62457;SDS011;48509;52.122;5.250;2023-02-04T10:48:38;47.6;;;7.7;;
62457;SDS011;48509;52.122;5.250;2023-02-04T10:50:18;45.8;;;8.0;;
62457;SDS011;48509;52.122;5.250;2023-02-04T10:51:55;43.9;;;8.71;;
62457;SDS011;48509;52.122;5.250;2023-02-04T10:56:15;50.3;;;10.3;;
62457;SDS011;48509;52.122;5.250;2023-02-04T10:59:32;41.2;;;7.9;;
62457;SDS011;48509;52.122;5.250;2023-02-04T11:01:09;45.4;;;8.1;;
62457;SDS011;48509;52.122;5.250;2023-02-04T11:02:48;49.8;;;9.21;;
62457;SDS011;48509;52.122;5.250;2023-02-04T11:04:31;42.0;;;8.71;;
62457;SDS011;48509;52.122;5.250;2023-02-04T11:07:48;43.0;;;8.0;;
62457;SDS011;48509;52.122;5.250;2023-02-04T11:09:25;45.0;;;8.2;;
62457;SDS011;48509;52.122;5.250;2023-02-04T11:11:03;47.3;;;8.0;;
62457;SDS011;48509;52.122;5.250;2023-02-04T11:14:22;42.7;;;7.8;;
62457;SDS011;48509;52.122;5.250;2023-02-04T11:16:07;45.5;;;7.8;;
62457;SDS011;48509;52.122;5.250;2023-02-04T11:18:01;45.1;;;8.0;;
62457;SDS011;48509;52.122;5.250;2023-02-04T11:19:42;33.71;;;6.8;;
62457;SDS011;48509;52.122;5.250;2023-02-04T11:21:21;42.2;;;7.6;;
62457;SDS011;48509;52.122;5.250;2023-02-04T11:24:51;40.31;;;7.5;;
62457;SDS011;48509;52.122;5.250;2023-02-04T11:26:31;40.31;;;7.6;;
62457;SDS011;48509;52.122;5.250;2023-02-04T11:28:12;44.1;;;7.6;;
62457;SDS011;48509;52.122;5.250;2023-02-04T11:29:49;50.1;;;7.9;;
62457;SDS011;48509;52.122;5.250;2023-02-04T11:33:20;37.6;;;8.0;;
62457;SDS011;48509;52.122;5.250;2023-02-04T11:35:19;43.8;;;7.8;;
62457;SDS011;48509;52.122;5.250;2023-02-04T11:37:27;48.5;;;8.1;;
62457;SDS011;48509;52.122;5.250;2023-02-04T11:39:13;41.6;;;7.2;;
62457;SDS011;48509;52.122;5.250;2023-02-04T11:40:54;42.7;;;7.8;;
62457;SDS011;48509;52.122;5.250;2023-02-04T11:42:37;40.81;;;8.1;;
62457;SDS011;48509;52.122;5.250;2023-02-04T11:44:15;41.1;;;7.6;;
62457;SDS011;48509;52.122;5.250;2023-02-04T11:47:39;42.9;;;8.0;;
62457;SDS011;48509;52.122;5.250;2023-02-04T11:49:17;38.31;;;7.8;;
62457;SDS011;48509;52.122;5.250;2023-02-04T11:50:56;44.7;;;8.2;;
62457;SDS011;48509;52.122;5.250;2023-02-04T11:52:34;30.3;;;6.8;;
62457;SDS011;48509;52.122;5.250;2023-02-04T11:55:49;48.1;;;7.9;;
62457;SDS011;48509;52.122;5.250;2023-02-04T11:57:26;35.71;;;7.3;;
62457;SDS011;48509;52.122;5.250;2023-02-04T11:59:03;48.8;;;8.6;;
62457;SDS011;48509;52.122;5.250;2023-02-04T12:02:18;50.4;;;8.4;;
62457;SDS011;48509;52.122;5.250;2023-02-04T12:03:57;39.0;;;7.8;;
62457;SDS011;48509;52.122;5.250;2023-02-04T12:05:37;45.7;;;8.4;;
62457;SDS011;48509;52.122;5.250;2023-02-04T12:07:15;45.7;;;8.4;;
62457;SDS011;48509;52.122;5.250;2023-02-04T12:10:59;43.9;;;8.2;;
62457;SDS011;48509;52.122;5.250;2023-02-04T12:12:41;43.2;;;7.9;;
62457;SDS011;48509;52.122;5.250;2023-02-04T12:14:27;45.0;;;8.5;;
62457;SDS011;48509;52.122;5.250;2023-02-04T12:16:06;45.5;;;8.2;;
62457;SDS011;48509;52.122;5.250;2023-02-04T12:17:43;45.5;;;8.2;;
62457;SDS011;48509;52.122;5.250;2023-02-04T12:20:58;38.1;;;8.0;;
62457;SDS011;48509;52.122;5.250;2023-02-04T12:22:36;38.81;;;8.4;;
62457;SDS011;48509;52.122;5.250;2023-02-04T12:24:12;45.1;;;8.5;;
62457;SDS011;48509;52.122;5.250;2023-02-04T12:27:25;35.6;;;7.8;;
62457;SDS011;48509;52.122;5.250;2023-02-04T12:29:02;40.4;;;8.31;;
62457;SDS011;48509;52.122;5.250;2023-02-04T12:30:38;45.7;;;8.71;;
62457;SDS011;48509;52.122;5.250;2023-02-04T12:33:53;35.6;;;8.0;;
62457;SDS011;48509;52.122;5.250;2023-02-04T12:35:29;45.2;;;8.4;;
62457;SDS011;48509;52.122;5.250;2023-02-04T12:37:05;36.4;;;7.5;;
62457;SDS011;48509;52.122;5.250;2023-02-04T12:38:41;40.71;;;8.2;;
62457;SDS011;48509;52.122;5.250;2023-02-04T12:41:58;37.81;;;8.2;;
62457;SDS011;48509;52.122;5.250;2023-02-04T12:43:33;35.6;;;7.8;;
62457;SDS011;48509;52.122;5.250;2023-02-04T12:48:25;31.7;;;6.9;;
62457;SDS011;48509;52.122;5.250;2023-02-04T12:50:01;40.31;;;7.6;;
62457;SDS011;48509;52.122;5.250;2023-02-04T12:51:38;38.4;;;8.4;;
62457;SDS011;48509;52.122;5.250;2023-02-04T12:53:15;38.71;;;7.7;;
62457;SDS011;48509;52.122;5.250;2023-02-04T12:56:27;41.1;;;8.31;;